Parkersburg, Illinois
Current Conditions -  °F | °C
As of 12:55 PM on Friday 24 Oct 2014 (Local Time) from KOLY Reporting Station
Broken Clouds Broken Clouds  
Wind Chill: 66°   Ceiling: 3500
Heat Index: 66°   Visibility: 10mi
Dew Point: 54°   Wind: 0mph
Humidity: 64%   Direction: NA
Pressure: 30.08"   Gusts: NA
Location:  38.59°N, 88.06°W
Report Text: KOLY 241755Z AUTO 00000KT 10SM BKN035 BKN047 19/12 A3008 RMK AO2
Loading
Personal Weather Stations






























Interactive Weather Map
Tropical Storm Tracking
New forecast layout! Learn more

10-Day Weather Forecast

Advertisements
Track Severe Weather on mobile